Time;durP1;ratioP1;P1;durP2;ratioP2;P2;SDS_P1;SDS_P2;PMS_P1;PMS_P2;Temp;Humidity;BMP_temperature;BMP_pressure;BME280_temperature;BME280_humidity;BME280_pressure;Samples;Min_cycle;Max_cycle;Signal;HPM_P1;HPM_P2
2021/08/04 00:00:35;;;;;;;7.32;6.35;;;19.50;99.90;;;20.00;65.60;101300.28;5057318;28;20091;-78
2021/08/04 00:03:03;;;;;;;7.30;6.38;;;19.50;99.90;;;19.96;65.68;101290.59;5074899;28;20051;-78
2021/08/04 00:05:32;;;;;;;7.43;6.72;;;19.60;99.90;;;19.84;65.69;101277.59;5073845;28;20052;-80
2021/08/04 00:08:00;;;;;;;8.52;6.30;;;19.60;99.90;;;19.93;65.73;101289.84;5074836;28;20037;-80
2021/08/04 00:10:28;;;;;;;11.02;6.88;;;19.50;99.90;;;19.90;65.71;101290.81;5074724;28;20086;-78
2021/08/04 00:12:58;;;;;;;6.65;5.95;;;19.50;99.90;;;19.87;65.93;101293.63;5074589;28;20044;-80
2021/08/04 00:15:27;;;;;;;6.73;6.13;;;19.50;99.90;;;19.84;66.14;101288.34;5074678;28;20498;-79
2021/08/04 00:17:55;;;;;;;6.65;5.95;;;19.50;99.90;;;19.71;66.03;101263.75;5074906;28;20045;-80
2021/08/04 00:20:24;;;;;;;7.85;6.30;;;19.40;99.90;;;19.82;66.12;101290.22;5075003;28;20049;-81
2021/08/04 00:22:52;;;;;;;7.10;6.25;;;19.40;99.90;;;19.85;66.20;101286.53;5056885;28;20116;-81
2021/08/04 00:25:20;;;;;;;8.13;6.63;;;19.50;99.90;;;19.71;66.43;101277.19;5074503;28;20068;-79
2021/08/04 00:27:49;;;;;;;7.50;6.68;;;19.50;99.90;;;19.61;66.41;101256.94;5074733;28;20106;-79
2021/08/04 00:30:19;;;;;;;7.57;6.38;;;19.40;99.90;;;19.75;66.53;101294.06;5056578;28;20052;-79
2021/08/04 00:32:47;;;;;;;7.83;6.20;;;19.30;99.90;;;19.72;66.58;101284.28;5074353;28;20072;-78
2021/08/04 00:35:16;;;;;;;7.30;6.60;;;19.30;99.90;;;19.53;66.59;101256.34;5056080;28;20656;-73
2021/08/04 00:37:44;;;;;;;8.40;6.68;;;19.20;99.90;;;19.70;66.52;101282.59;5074328;28;20410;-73
2021/08/04 00:40:14;;;;;;;6.93;6.13;;;19.30;99.90;;;19.60;66.65;101273.13;5074354;28;20115;-73
2021/08/04 00:42:42;;;;;;;7.13;6.50;;;19.20;99.90;;;19.47;66.54;101258.38;5073141;28;20048;-74
2021/08/04 00:45:13;;;;;;;7.82;7.00;;;19.30;99.90;;;19.27;66.69;101215.22;5073013;28;20053;-73
2021/08/04 00:47:43;;;;;;;7.25;6.28;;;19.30;99.90;;;19.40;66.75;101238.03;5074116;28;20040;-73
2021/08/04 00:50:12;;;;;;;;;;;19.20;99.90;;;19.68;66.56;101281.78;5074322;28;20048;-71
2021/08/04 00:52:41;;;;;;;7.13;6.43;;;19.30;99.90;;;19.68;66.60;101300.56;5056160;28;19928;-71
2021/08/04 00:55:11;;;;;;;8.68;7.40;;;19.30;99.90;;;19.67;66.77;101304.16;5055957;28;20106;-71
2021/08/04 00:57:40;;;;;;;9.05;7.07;;;19.30;99.90;;;19.64;66.76;101288.19;5074091;28;20066;-72
2021/08/04 01:00:11;;;;;;;9.05;6.88;;;19.30;99.90;;;19.63;66.84;101286.41;5073732;28;20037;-71
2021/08/04 01:02:47;;;;;;;9.07;7.47;;;19.30;99.90;;;19.58;66.88;101289.28;5055758;28;20055;-71
2021/08/04 01:05:23;;;;;;;9.18;7.60;;;19.30;99.90;;;19.55;67.04;101283.16;5072533;28;20051;-72
2021/08/04 01:07:57;;;;;;;9.27;8.25;;;19.20;99.90;;;19.55;67.04;101294.75;5072534;28;20051;-72
2021/08/04 01:10:29;;;;;;;7.70;7.00;;;19.20;99.90;;;19.36;67.06;101255.16;5055845;28;20094;-71
2021/08/04 01:13:07;;;;;;;12.75;7.75;;;19.20;99.90;;;19.49;67.30;101284.22;5072437;28;20059;-72
2021/08/04 01:15:42;;;;;;;8.73;7.82;;;19.10;99.90;;;19.46;67.46;101286.13;5056077;28;20106;-72
2021/08/04 01:18:17;;;;;;;9.13;7.35;;;19.10;99.90;;;19.26;67.32;101251.03;5055696;28;20093;-71
2021/08/04 01:20:46;;;;;;;8.70;7.80;;;19.10;99.90;;;19.45;67.51;101298.66;5073717;28;20045;-71
2021/08/04 01:23:23;;;;;;;8.65;7.75;;;19.10;99.90;;;19.41;67.52;101283.63;5073325;28;20053;-71
2021/08/04 01:25:59;;;;;;;8.75;7.90;;;19.10;99.90;;;19.44;67.56;101286.19;5055584;28;20486;-71
2021/08/04 01:28:35;;;;;;;9.68;8.68;;;19.10;99.90;;;19.24;67.72;101260.94;5055653;28;20490;-71
2021/08/04 01:31:07;;;;;;;12.88;9.25;;;19.10;99.90;;;18.52;67.65;101144.50;5073427;28;20056;-71
2021/08/04 01:33:40;;;;;;;9.82;8.82;;;19.00;99.90;;;19.41;67.90;101298.84;5073350;28;20068;-71
2021/08/04 01:36:11;;;;;;;14.23;9.75;;;19.00;99.90;;;18.75;68.08;101182.13;5055525;28;20048;-71
2021/08/04 01:38:41;;;;;;;10.25;9.25;;;19.00;99.90;;;19.21;68.27;101271.75;5055559;28;20062;-71
2021/08/04 01:41:11;;;;;;;;;;;18.90;99.90;;;19.27;68.47;101285.84;5073913;28;20052;-71
2021/08/04 01:43:42;;;;;;;9.65;8.75;;;19.00;99.90;;;17.04;68.21;100888.69;5073087;28;19959;-71
2021/08/04 01:46:13;;;;;;;10.35;9.25;;;19.00;99.90;;;19.07;68.36;101252.56;5073402;28;20064;-72
2021/08/04 01:48:44;;;;;;;13.50;9.63;;;18.90;99.90;;;19.32;68.69;101278.53;5055404;28;20137;-71
2021/08/04 01:51:14;;;;;;;15.02;10.18;;;18.90;99.90;;;19.07;68.44;101244.50;5055323;28;20391;-72
2021/08/04 01:53:44;;;;;;;11.73;9.73;;;18.90;99.90;;;19.27;68.60;101285.84;5055397;28;20048;-71
2021/08/04 01:56:14;;;;;;;11.68;10.32;;;18.90;99.90;;;19.24;68.79;101279.72;5071846;28;20061;-71
2021/08/04 01:58:45;;;;;;;11.82;10.13;;;18.90;99.90;;;19.01;68.48;101258.16;5054999;28;20136;-71
2021/08/04 02:01:14;;;;;;;11.63;9.55;;;18.90;99.90;;;19.25;68.77;101295.75;5054973;28;20106;-72
2021/08/04 02:03:43;;;;;;;11.40;10.20;;;18.90;99.90;;;19.25;69.00;101293.06;5073091;28;20050;-71
2021/08/04 02:06:21;;;;;;;10.98;9.80;;;18.90;99.90;;;19.24;68.97;101288.63;5073147;28;20041;-72
2021/08/04 02:09:01;;;;;;;10.90;9.80;;;18.90;99.90;;;19.29;68.91;101299.22;5058016;28;20056;-71
2021/08/04 02:11:46;;;;;;;10.33;9.33;;;18.90;99.90;;;19.17;69.05;101287.06;5077256;28;20044;-71
2021/08/04 02:14:20;;;;;;;11.63;10.10;;;18.80;99.90;;;18.83;69.21;101222.09;5076994;28;20473;-72
2021/08/04 02:16:58;;;;;;;11.95;10.48;;;18.90;99.90;;;19.15;69.07;101280.88;5059198;28;20052;-71
2021/08/04 02:19:31;;;;;;;12.65;10.55;;;18.90;99.90;;;19.21;69.21;101287.84;5075751;28;20055;-71
2021/08/04 02:22:04;;;;;;;11.15;9.85;;;18.80;99.90;;;19.20;69.23;101280.75;5059151;28;20083;-71
2021/08/04 02:24:46;;;;;;;11.73;10.40;;;18.80;99.90;;;19.13;69.25;101277.38;5059018;28;20516;-71
2021/08/04 02:27:15;;;;;;;14.35;10.75;;;18.80;99.90;;;19.16;69.20;101279.09;5076996;28;20052;-71
2021/08/04 02:29:48;;;;;;;11.68;10.48;;;18.80;99.90;;;19.15;69.28;101277.31;5075590;28;20059;-71
2021/08/04 02:32:16;;;;;;;13.70;10.65;;;18.70;99.90;;;19.14;69.41;101270.22;5076259;28;20063;-72
2021/08/04 02:34:45;;;;;;;13.52;10.23;;;18.80;99.90;;;19.07;69.31;101271.31;5076759;28;20068;-72
2021/08/04 02:37:13;;;;;;;11.18;10.10;;;18.70;99.90;;;17.48;69.47;101003.19;5076661;28;20060;-72
2021/08/04 02:39:42;;;;;;;11.48;10.18;;;18.60;99.90;;;19.02;69.58;101271.50;5075460;28;20051;-72
2021/08/04 02:42:13;;;;;;;13.35;10.93;;;18.60;99.90;;;19.04;69.56;101263.41;5076358;28;20115;-72
2021/08/04 02:44:42;;;;;;;15.57;11.10;;;18.60;99.90;;;18.74;69.56;101212.53;5076691;28;20056;-72
2021/08/04 02:47:12;;;;;;;14.65;11.38;;;18.60;99.90;;;18.57;69.80;101193.44;5058619;28;20135;-72
2021/08/04 02:49:41;;;;;;;12.45;10.93;;;18.60;99.90;;;18.99;69.67;101262.69;5076816;28;20044;-71
2021/08/04 02:52:11;;;;;;;13.48;11.15;;;18.60;99.90;;;18.89;69.77;101254.91;5058466;28;20072;-72
2021/08/04 02:54:40;;;;;;;11.40;10.30;;;18.60;99.90;;;18.93;69.67;101243.16;5076332;28;20090;-72
2021/08/04 02:57:08;;;;;;;13.20;10.43;;;18.60;99.90;;;18.98;69.81;101255.53;5076386;28;20068;-72
2021/08/04 02:59:36;;;;;;;12.75;11.43;;;18.60;99.90;;;18.97;69.91;101256.50;5075079;28;20064;-72
2021/08/04 03:02:06;;;;;;;15.57;11.80;;;18.60;99.90;;;18.96;70.00;101254.72;5076232;28;20036;-72
2021/08/04 03:04:36;;;;;;;12.70;11.40;;;18.60;99.90;;;18.86;70.04;101252.34;5076215;28;20040;-72
2021/08/04 03:07:05;;;;;;;13.63;11.20;;;18.50;99.90;;;18.58;70.22;101219.28;5074914;28;20044;-71
2021/08/04 03:09:33;;;;;;;12.55;11.30;;;18.40;99.90;;;18.49;70.69;101214.22;5076061;28;20076;-72
2021/08/04 03:12:02;;;;;;;12.30;11.10;;;18.30;99.90;;;18.47;71.23;101250.03;5058059;28;20094;-72
2021/08/04 03:14:30;;;;;;;12.88;11.20;;;18.20;99.90;;;18.53;71.36;101244.47;5074733;28;20045;-72
2021/08/04 03:16:58;;;;;;;13.95;11.27;;;18.20;99.90;;;18.49;71.48;101265.13;5076031;28;20045;-71
2021/08/04 03:19:27;;;;;;;14.63;12.93;;;18.20;99.90;;;18.40;71.84;101249.31;5057957;28;20049;-72
2021/08/04 03:21:57;;;;;;;12.80;11.45;;;18.10;99.90;;;18.44;71.77;101240.31;5075980;28;20094;-72
2021/08/04 03:24:25;;;;;;;14.00;12.10;;;18.10;99.90;;;18.38;71.79;101239.56;5075602;28;20086;-72
2021/08/04 03:26:54;;;;;;;17.00;11.85;;;18.20;99.90;;;18.28;71.94;101212.19;5057872;28;20672;-72
2021/08/04 03:29:22;;;;;;;13.93;12.57;;;18.10;99.90;;;18.48;71.78;101258.03;5076088;28;20071;-72
2021/08/04 03:31:50;;;;;;;13.40;12.10;;;18.10;99.90;;;18.49;71.61;101258.88;5075501;28;20052;-72
2021/08/04 03:34:19;;;;;;;15.15;12.82;;;18.10;99.90;;;18.41;71.75;101234.97;5075421;28;20052;-72
2021/08/04 03:36:47;;;;;;;15.07;12.43;;;18.10;99.90;;;18.35;71.83;101229.81;5075747;28;20086;-72
2021/08/04 03:39:17;;;;;;;13.93;12.40;;;18.10;99.90;;;16.59;71.65;100919.44;5075284;28;20064;-72
2021/08/04 03:41:46;;;;;;;14.85;12.80;;;18.10;99.90;;;18.43;71.88;101246.56;5075286;28;20501;-71
2021/08/04 03:44:14;;;;;;;14.38;12.88;;;18.10;99.90;;;18.41;71.93;101251.06;5075207;28;20068;-72
2021/08/04 03:46:46;;;;;;;16.08;12.77;;;18.00;99.90;;;18.31;72.21;101248.72;5075422;28;20040;-72
2021/08/04 03:49:15;;;;;;;16.60;13.20;;;18.00;99.90;;;18.13;72.27;101233.19;5075232;28;20041;-72
2021/08/04 03:51:44;;;;;;;14.48;12.98;;;17.90;99.90;;;18.26;72.40;101256.00;5074968;28;20044;-72
2021/08/04 03:54:13;;;;;;;14.77;13.27;;;17.90;99.90;;;17.97;72.95;101240.78;5075096;28;20181;-72
2021/08/04 03:56:43;;;;;;;14.88;13.38;;;17.70;99.90;;;18.07;73.24;101252.09;5075305;28;20079;-72
2021/08/04 03:59:14;;;;;;;14.65;13.15;;;17.70;99.90;;;17.90;73.14;101217.81;5075297;28;20045;-72
2021/08/04 04:01:42;;;;;;;15.20;13.55;;;17.70;99.90;;;17.95;73.60;101256.91;5057293;28;20052;-72
2021/08/04 04:04:11;;;;;;;16.58;13.32;;;17.60;99.90;;;17.83;74.17;101257.22;5075125;28;20072;-72
2021/08/04 04:06:39;;;;;;;15.82;14.18;;;17.40;99.90;;;17.77;74.14;101240.47;5073724;28;20052;-71
2021/08/04 04:09:08;;;;;;;15.77;13.38;;;17.50;99.90;;;17.91;73.92;101257.91;5075027;28;20041;-70
2021/08/04 04:11:38;;;;;;;13.75;12.35;;;17.50;99.90;;;17.95;74.02;101272.06;5074720;28;20068;-69
2021/08/04 04:14:07;;;;;;;14.23;12.82;;;17.50;99.90;;;17.70;74.90;101262.97;5074668;28;20478;-70
2021/08/04 04:16:36;;;;;;;14.50;13.00;;;17.30;99.90;;;17.56;75.29;101243.72;5073622;28;20044;-75
2021/08/04 04:19:07;;;;;;;15.80;13.27;;;17.20;99.90;;;17.51;76.21;101275.09;5074799;28;20044;-73
2021/08/04 04:21:35;;;;;;;;;;;17.10;99.90;;;17.47;76.31;101273.38;5075567;28;20044;-74
2021/08/04 04:24:04;;;;;;;17.48;13.43;;;17.10;99.90;;;16.72;76.30;101161.25;5074414;28;19921;-74
2021/08/04 04:26:32;;;;;;;16.42;14.05;;;17.00;99.90;;;17.33;76.48;101271.06;5056750;28;20052;-72
2021/08/04 04:29:01;;;;;;;15.48;13.85;;;16.90;99.90;;;17.43;76.48;101277.94;5074361;28;20119;-72
2021/08/04 04:31:33;;;;;;;14.82;13.02;;;17.00;99.90;;;17.42;76.28;101269.94;5073487;28;20525;-73
2021/08/04 04:34:02;;;;;;;15.38;13.93;;;17.00;99.90;;;17.36;76.42;101275.44;5074714;28;20044;-72
2021/08/04 04:36:30;;;;;;;15.48;13.43;;;17.00;99.90;;;17.37;76.49;101271.84;5073970;28;20090;-72
2021/08/04 04:38:59;;;;;;;15.88;14.18;;;16.90;99.90;;;17.04;76.82;101233.47;5074505;28;20093;-71
2021/08/04 04:41:27;;;;;;;14.02;12.52;;;16.90;99.90;;;17.32;76.92;101281.78;5074093;28;20037;-72
2021/08/04 04:43:55;;;;;;;15.82;14.25;;;16.90;99.90;;;17.44;76.83;101286.84;5074079;28;20460;-72
2021/08/04 04:46:24;;;;;;;16.75;13.85;;;16.90;99.90;;;17.46;76.55;101274.31;5074227;28;20048;-72
2021/08/04 04:48:54;;;;;;;20.85;13.73;;;17.10;99.90;;;17.56;76.22;101279.38;5073968;28;20060;-72
2021/08/04 04:51:22;;;;;;;16.67;14.10;;;17.10;99.90;;;17.53;76.10;101281.28;5073970;28;20041;-72
2021/08/04 04:53:51;;;;;;;16.17;14.35;;;17.20;99.90;;;17.21;76.16;101236.59;5056132;28;20049;-72
2021/08/04 04:56:23;;;;;;;15.07;13.35;;;17.20;99.90;;;17.67;75.93;101284.47;5056138;28;20102;-72
2021/08/04 04:58:54;;;;;;;16.25;14.35;;;17.30;99.90;;;17.25;76.02;101224.06;5073852;28;20370;-72
2021/08/04 05:01:23;;;;;;;15.80;14.13;;;17.30;99.90;;;17.61;76.05;101288.19;5073696;28;20072;-72
2021/08/04 05:03:53;;;;;;;16.98;15.18;;;17.30;99.90;;;17.68;76.01;101286.22;5073749;28;20033;-72
2021/08/04 05:06:22;;;;;;;16.20;14.57;;;17.30;99.90;;;17.70;76.04;101293.28;5073725;28;20086;-72
2021/08/04 05:08:50;;;;;;;15.10;13.60;;;17.30;99.90;;;17.74;75.99;101291.41;5073811;28;20407;-72
2021/08/04 05:11:19;;;;;;;18.58;14.02;;;17.40;99.90;;;17.66;75.89;101272.88;5073493;28;20044;-72
2021/08/04 05:13:47;;;;;;;18.33;13.98;;;17.40;99.90;;;17.65;76.13;101278.28;5073707;28;20037;-72
2021/08/04 05:16:16;;;;;;;14.88;13.35;;;17.40;99.90;;;17.71;75.93;101288.81;5073331;28;20505;-72
2021/08/04 05:18:44;;;;;;;15.00;13.50;;;17.40;99.90;;;17.29;77.28;101279.19;5073715;28;20136;-72
2021/08/04 05:21:14;;;;;;;17.63;14.57;;;17.10;99.90;;;17.48;77.26;101293.88;5055645;28;20150;-71
2021/08/04 05:23:43;;;;;;;15.38;13.77;;;17.10;99.90;;;17.67;77.15;101289.81;5073391;28;20060;-72
2021/08/04 05:26:11;;;;;;;16.02;14.35;;;17.30;99.90;;;17.63;76.77;101267.63;5073366;28;20086;-72
2021/08/04 05:28:39;;;;;;;16.13;14.27;;;17.40;99.90;;;17.86;76.53;101301.78;5073335;28;20059;-72
2021/08/04 05:31:08;;;;;;;15.15;13.63;;;17.50;99.90;;;17.95;76.58;101305.09;5073153;28;20460;-72
2021/08/04 05:33:37;;;;;;;14.05;12.65;;;17.60;99.90;;;17.84;76.11;101308.97;5073115;28;20037;-74
2021/08/04 05:36:05;;;;;;;15.98;14.27;;;17.60;99.90;;;17.55;77.17;101311.53;5073481;28;20040;-74
2021/08/04 05:38:37;;;;;;;16.33;13.55;;;17.30;99.90;;;17.49;77.78;101311.69;5073271;28;20094;-74
2021/08/04 05:41:05;;;;;;;17.90;14.40;;;17.20;99.90;;;17.21;78.21;101300.75;5073448;28;20105;-74
2021/08/04 05:43:34;;;;;;;17.40;13.48;;;17.00;99.90;;;17.32;78.53;101311.22;5072529;28;20044;-74
2021/08/04 05:46:02;;;;;;;16.17;14.45;;;17.00;99.90;;;17.46;78.62;101312.59;5072992;28;20110;-74
2021/08/04 05:48:31;;;;;;;15.57;13.82;;;17.10;99.90;;;17.51;78.71;101312.53;5073027;28;20041;-74
2021/08/04 05:50:59;;;;;;;17.20;13.63;;;17.10;99.90;;;17.41;78.09;101276.19;5055175;28;20094;-74
2021/08/04 05:53:28;;;;;;;18.88;14.07;;;17.20;99.90;;;17.81;77.77;101315.28;5055179;28;20417;-74
2021/08/04 05:55:57;;;;;;;16.10;14.40;;;17.40;99.90;;;17.80;77.75;101309.97;5072917;28;20083;-74
2021/08/04 05:58:26;;;;;;;15.47;13.30;;;17.50;99.90;;;17.61;77.88;101300.69;5072906;28;20506;-74
2021/08/04 06:00:54;;;;;;;17.75;13.73;;;17.40;99.90;;;17.33;78.44;101280.88;5072918;28;20044;-74
2021/08/04 06:03:23;;;;;;;16.10;14.40;;;17.20;99.90;;;17.18;78.91;101255.41;5073361;28;20036;-74
2021/08/04 06:05:52;;;;;;;16.58;13.95;;;17.20;99.90;;;17.62;78.48;101255.16;5072732;28;20040;-74
2021/08/04 06:08:20;;;;;;;15.95;13.75;;;17.40;99.90;;;18.01;77.71;101302.25;5073441;28;20120;-74
2021/08/04 06:10:48;;;;;;;17.30;13.57;;;17.60;99.90;;;18.02;76.88;101313.84;5072898;28;20064;-75
2021/08/04 06:13:18;;;;;;;15.73;13.88;;;17.70;99.90;;;18.19;77.37;101318.69;5072706;28;20076;-74
2021/08/04 06:15:49;;;;;;;15.65;13.40;;;17.70;99.90;;;18.12;77.24;101291.22;5072764;28;20106;-75
2021/08/04 06:18:18;;;;;;;15.80;13.98;;;17.90;99.90;;;18.33;76.21;101306.66;5072778;28;20051;-75
2021/08/04 06:20:46;;;;;;;16.30;13.85;;;17.90;99.90;;;18.46;76.62;101320.63;5072803;28;20049;-75
2021/08/04 06:23:15;;;;;;;15.90;13.75;;;18.00;99.90;;;18.75;76.22;101320.63;5072610;28;20070;-75
2021/08/04 06:25:43;;;;;;;16.88;13.85;;;18.30;99.90;;;18.30;74.76;101265.69;5072656;28;20045;-75
2021/08/04 06:28:12;;;;;;;15.63;14.02;;;18.20;99.90;;;18.89;74.76;101316.56;5072838;28;20306;-75
2021/08/04 06:30:42;;;;;;;14.75;13.25;;;18.40;99.90;;;19.14;74.05;101314.00;5073476;28;20102;-75
2021/08/04 06:33:10;;;;;;;16.63;13.95;;;18.70;99.90;;;19.06;74.13;101320.53;5072425;28;20063;-75
2021/08/04 06:35:39;;;;;;;15.90;13.43;;;18.70;99.90;;;19.16;73.48;101319.31;5072690;28;20040;-75
2021/08/04 06:38:07;;;;;;;15.00;13.40;;;18.80;99.90;;;19.15;74.59;101325.59;5072748;28;20045;-75
2021/08/04 06:40:36;;;;;;;15.63;13.90;;;18.70;99.90;;;19.15;73.77;101293.41;5072264;28;20076;-65
2021/08/04 06:43:05;;;;;;;14.93;13.20;;;18.90;99.90;;;19.37;73.50;101324.00;5072995;28;20052;-65
2021/08/04 06:45:33;;;;;;;16.05;13.15;;;18.90;99.90;;;19.08;73.30;101322.25;5054852;28;20182;-66
2021/08/04 06:48:04;;;;;;;21.02;13.18;;;18.70;99.90;;;19.10;73.12;101315.03;5054582;28;20040;-65
2021/08/04 06:50:32;;;;;;;16.08;12.63;;;18.70;99.90;;;19.01;73.39;101287.63;5054907;28;20098;-68
2021/08/04 06:53:01;;;;;;;14.32;12.38;;;18.70;99.90;;;19.14;72.82;101322.06;5072346;28;20040;-68
2021/08/04 06:55:29;;;;;;;14.57;13.18;;;18.80;99.90;;;19.18;72.48;101318.31;5076333;28;20037;-66
2021/08/04 06:57:58;;;;;;;16.33;12.75;;;18.80;99.90;;;18.91;73.32;101284.38;5076313;28;20050;-66
2021/08/04 07:00:26;;;;;;;16.02;12.43;;;18.70;99.90;;;19.03;72.93;101316.13;5074940;28;20382;-66
2021/08/04 07:02:55;;;;;;;16.95;12.63;;;18.70;99.90;;;18.74;73.47;101327.78;5075876;28;20048;-67
2021/08/04 07:05:25;;;;;;;15.90;12.57;;;18.50;99.90;;;18.84;73.52;101321.22;5076193;28;20072;-67
2021/08/04 07:07:53;;;;;;;19.73;13.45;;;18.50;99.90;;;18.96;73.56;101317.28;5076205;28;20097;-68
2021/08/04 07:10:22;;;;;;;19.52;13.45;;;18.50;99.90;;;19.21;73.53;101325.41;5076068;28;20041;-67
2021/08/04 07:12:53;;;;;;;17.50;12.35;;;18.70;99.90;;;19.49;72.77;101327.16;5058041;28;20044;-66
2021/08/04 07:15:22;;;;;;;15.85;12.13;;;19.00;99.90;;;19.36;71.83;101306.16;5075757;28;20064;-67
2021/08/04 07:17:52;;;;;;;16.73;12.23;;;19.10;99.90;;;19.43;71.24;101322.00;5075959;28;20079;-66
2021/08/04 07:20:25;;;;;;;17.48;11.23;;;19.10;99.90;;;19.64;71.13;101321.28;5075632;28;20047;-66
2021/08/04 07:22:54;;;;;;;15.15;11.15;;;19.20;99.90;;;19.32;70.53;101302.69;5075950;28;20068;-64
2021/08/04 07:25:22;;;;;;;16.25;11.38;;;19.20;99.90;;;19.34;70.59;101311.56;5075791;28;20127;-67
2021/08/04 07:27:51;;;;;;;13.27;10.43;;;19.00;99.90;;;19.49;70.67;101297.63;5057725;28;20049;-71
2021/08/04 07:30:20;;;;;;;13.98;10.98;;;19.20;99.90;;;19.74;69.77;101324.53;5075361;28;20049;-67
2021/08/04 07:32:48;;;;;;;43.63;31.40;;;19.40;99.90;;;19.89;70.10;101323.09;5075653;28;20056;-65
2021/08/04 07:35:17;;;;;;;27.17;24.30;;;19.50;99.90;;;20.00;68.24;101329.84;5075427;28;20044;-64
2021/08/04 07:37:47;;;;;;;25.33;17.88;;;19.60;99.90;;;19.82;67.84;101337.69;5075229;28;20486;-64
2021/08/04 07:40:17;;;;;;;34.50;20.60;;;19.60;99.90;;;20.10;68.62;101335.75;5075782;28;20049;-68
2021/08/04 07:42:46;;;;;;;16.45;11.95;;;19.70;99.90;;;20.15;68.36;101337.34;5057699;28;20087;-67
2021/08/04 07:45:16;;;;;;;13.05;10.10;;;19.70;99.90;;;20.28;66.96;101324.38;5057586;28;20056;-67
2021/08/04 07:47:45;;;;;;;11.38;9.93;;;19.80;99.90;;;20.07;66.61;101293.78;5075098;28;20036;-66
2021/08/04 07:50:15;;;;;;;13.63;9.93;;;19.90;99.90;;;20.10;67.37;101269.50;5075744;28;20044;-67
2021/08/04 07:52:43;;;;;;;12.25;9.48;;;20.10;99.90;;;20.32;66.54;101328.72;5075172;28;20091;-66
2021/08/04 07:55:16;;;;;;;10.13;8.07;;;20.00;99.90;;;20.29;65.36;101332.38;5074675;28;20123;-67
2021/08/04 07:57:45;;;;;;;13.00;8.70;;;20.00;99.90;;;20.33;65.32;101325.97;5075321;28;20071;-67
2021/08/04 08:00:15;;;;;;;9.68;8.25;;;19.90;99.90;;;19.94;65.12;101305.88;5074928;28;20086;-66
2021/08/04 08:02:44;;;;;;;14.02;8.95;;;19.80;99.90;;;20.08;65.38;101322.38;5075203;28;20387;-66
2021/08/04 08:05:14;;;;;;;14.07;9.95;;;19.70;99.90;;;20.43;64.25;101322.00;5073823;28;20051;-65
2021/08/04 08:07:47;;;;;;;13.68;9.52;;;20.00;99.90;;;20.50;62.99;101295.75;5074827;28;20041;-66
2021/08/04 08:10:18;;;;;;;11.55;9.38;;;20.20;99.90;;;20.55;62.89;101326.03;5074931;28;20040;-66
2021/08/04 08:12:47;;;;;;;11.20;9.52;;;20.20;99.90;;;20.77;63.73;101309.97;5074930;28;20075;-66
2021/08/04 08:15:16;;;;;;;14.70;9.65;;;20.40;99.90;;;20.92;62.01;101312.03;5074581;28;20121;-67
2021/08/04 08:17:45;;;;;;;9.73;8.70;;;20.60;99.90;;;21.20;63.16;101316.28;5056805;28;20110;-65
2021/08/04 08:20:14;;;;;;;13.18;10.20;;;20.80;99.90;;;21.07;61.21;101317.72;5074243;28;20045;-66
2021/08/04 08:22:43;;;;;;;12.65;9.95;;;20.70;99.90;;;21.10;60.52;101312.19;5073844;28;20049;-67
2021/08/04 08:25:13;;;;;;;15.45;9.88;;;20.80;99.90;;;20.90;60.47;101312.09;5074899;28;20512;-67
2021/08/04 08:27:44;;;;;;;10.93;9.63;;;20.60;99.90;;;20.98;59.52;101277.69;5074976;28;20050;-67
2021/08/04 08:30:15;;;;;;;13.20;10.02;;;20.70;99.90;;;21.26;59.80;101307.94;5074643;28;20037;-67
2021/08/04 08:32:46;;;;;;;11.32;9.02;;;20.90;99.90;;;21.02;59.72;101305.41;5074864;28;20545;-66
2021/08/04 08:35:14;;;;;;;13.15;9.10;;;20.70;99.90;;;21.30;59.54;101303.31;5074411;28;20041;-67
2021/08/04 08:37:43;;;;;;;11.70;8.57;;;20.90;99.90;;;21.57;58.06;101307.53;5056692;28;20106;-66
2021/08/04 08:40:13;;;;;;;10.43;8.73;;;21.20;99.90;;;21.20;57.42;101308.19;5074419;28;20543;-66
2021/08/04 08:42:45;;;;;;;12.48;9.05;;;21.00;99.90;;;21.20;58.97;101302.81;5074614;28;20525;-66
2021/08/04 08:45:15;;;;;;;10.40;8.15;;;20.90;99.90;;;21.42;58.58;101290.22;5074524;28;20074;-65
2021/08/04 08:47:45;;;;;;;12.65;9.40;;;21.10;99.90;;;20.78;58.63;101196.06;5074317;28;20041;-66
2021/08/04 08:50:25;;;;;;;15.18;8.50;;;21.00;99.90;;;21.26;58.32;101307.94;5074596;28;20040;-69
2021/08/04 08:52:55;;;;;;;17.38;9.38;;;20.90;99.90;;;21.51;59.80;101305.97;5074400;28;20075;-69
2021/08/04 08:55:24;;;;;;;13.27;9.57;;;21.10;99.90;;;21.32;58.15;101304.13;5073976;28;20047;-67
2021/08/04 08:57:54;;;;;;;12.68;10.38;;;21.00;99.90;;;21.28;58.82;101305.19;5074170;28;20110;-67
2021/08/04 09:00:23;;;;;;;11.95;10.40;;;21.00;99.90;;;21.37;59.54;101307.50;5074080;28;20493;-69
2021/08/04 09:02:52;;;;;;;11.98;9.75;;;21.00;99.90;;;21.26;57.69;101255.94;5074147;28;20048;-67
2021/08/04 09:05:21;;;;;;;13.73;10.02;;;21.10;99.90;;;21.71;58.37;101313.22;5073776;28;20037;-67
2021/08/04 09:07:51;;;;;;;15.80;11.52;;;21.40;99.90;;;21.76;57.62;101308.50;5074108;28;20048;-67
2021/08/04 09:10:26;;;;;;;14.80;13.05;;;21.30;99.90;;;21.62;56.34;101316.31;5074014;28;20041;-67
2021/08/04 09:12:58;;;;;;;17.00;11.00;;;21.40;99.90;;;21.93;56.65;101307.81;5073895;28;20051;-67
2021/08/04 09:15:33;;;;;;;15.80;10.75;;;21.50;99.90;;;22.09;56.70;101303.47;5073874;28;20041;-67
2021/08/04 09:18:06;;;;;;;16.05;13.48;;;21.80;99.90;;;22.17;55.14;101280.63;5073522;28;20040;-68
2021/08/04 09:20:52;;;;;;;16.55;12.88;;;21.90;99.90;;;22.15;56.05;101317.56;5073506;28;20037;-66
2021/08/04 09:23:23;;;;;;;14.60;13.10;;;21.80;99.90;;;22.07;55.62;101276.59;5073876;28;20041;-67
2021/08/04 09:26:04;;;;;;;15.35;13.73;;;21.80;99.90;;;22.36;57.09;101286.91;5073800;28;20413;-65
2021/08/04 09:28:57;;;;;;;22.15;15.68;;;22.10;99.90;;;22.56;54.05;101318.34;5074158;28;20055;-64
2021/08/04 09:31:48;;;;;;;17.83;15.93;;;22.30;99.90;;;22.13;54.37;101313.16;5055275;28;20084;-65
2021/08/04 09:34:35;;;;;;;17.35;14.45;;;21.80;99.90;;;22.35;54.60;101305.88;5073400;28;20063;-65
2021/08/04 09:37:07;;;;;;;19.33;15.90;;;22.00;99.90;;;21.93;55.33;101310.50;5072235;28;20090;-64
2021/08/04 09:39:38;;;;;;;21.42;15.63;;;21.70;99.90;;;22.02;55.68;101305.56;5073560;28;20138;-65
2021/08/04 09:42:08;;;;;;;18.63;14.50;;;21.70;99.90;;;22.36;54.12;101319.28;5055713;28;20056;-64
2021/08/04 09:44:56;;;;;;;16.85;14.45;;;21.90;99.90;;;22.44;54.04;101309.00;5055435;28;20052;-65
2021/08/04 09:47:25;;;;;;;106.30;94.80;;;22.00;99.90;;;20.46;52.95;100920.56;5072646;28;20052;-69
2021/08/04 09:49:59;;;;;;;57.83;49.00;;;22.30;99.90;;;22.67;52.67;101307.06;5073207;28;20123;-70
2021/08/04 09:52:30;;;;;;;15.43;13.70;;;22.30;99.90;;;21.72;54.64;101296.09;5073341;28;20037;-67
2021/08/04 09:55:13;;;;;;;14.88;12.02;;;21.70;99.90;;;22.63;55.87;101300.97;5073243;28;20041;-68
2021/08/04 09:57:44;;;;;;;15.82;13.60;;;22.10;99.90;;;22.49;53.98;101302.53;5055502;28;20109;-68
2021/08/04 10:00:17;;;;;;;16.05;12.40;;;22.20;99.90;;;22.35;53.70;101295.97;5071976;28;20359;-65
2021/08/04 10:02:45;;;;;;;13.50;12.13;;;22.10;99.90;;;22.59;56.14;101295.81;5072747;28;20052;-68
2021/08/04 10:05:20;;;;;;;15.80;13.00;;;22.10;99.90;;;22.56;52.52;101279.72;5071471;28;20044;-68
2021/08/04 10:08:10;;;;;;;15.93;13.85;;;22.40;99.90;;;22.50;53.20;101315.94;5055221;28;20398;-69
2021/08/04 10:10:43;;;;;;;15.77;13.67;;;22.30;99.90;;;22.39;54.35;101292.19;5072597;28;20040;-65
2021/08/04 10:13:17;;;;;;;15.15;13.43;;;22.10;99.90;;;22.85;54.34;101296.31;5072634;28;20037;-65
2021/08/04 10:15:50;;;;;;;17.52;14.00;;;22.40;99.90;;;22.78;52.36;101269.69;5072910;28;20539;-66